sensor_id;sensor_type;location;lat;lon;timestamp;pressure;altitude;pressure_sealevel;temperature;humidity
56241;BME280;42155;53.096;23.226;2022-11-30T00:00:55;101275.78;;;2.01;80.58
56241;BME280;42155;53.096;23.226;2022-11-30T00:02:56;101270.50;;;2.02;81.18
56241;BME280;42155;53.096;23.226;2022-11-30T00:04:57;101266.25;;;1.98;80.92
56241;BME280;42155;53.096;23.226;2022-11-30T00:06:57;101260.25;;;1.95;80.77
56241;BME280;42155;53.096;23.226;2022-11-30T00:08:57;101268.84;;;1.98;80.97
56241;BME280;42155;53.096;23.226;2022-11-30T00:10:58;101274.03;;;2.01;81.16
56241;BME280;42155;53.096;23.226;2022-11-30T00:12:58;101276.59;;;2.03;80.83
56241;BME280;42155;53.096;23.226;2022-11-30T00:14:59;101263.59;;;2.00;80.99
56241;BME280;42155;53.096;23.226;2022-11-30T00:16:59;101272.28;;;2.02;80.79
56241;BME280;42155;53.096;23.226;2022-11-30T00:18:59;101276.59;;;2.03;80.86
56241;BME280;42155;53.096;23.226;2022-11-30T00:21:01;101280.06;;;2.05;81.04
56241;BME280;42155;53.096;23.226;2022-11-30T00:23:01;101260.34;;;1.90;80.75
56241;BME280;42155;53.096;23.226;2022-11-30T00:25:01;101278.41;;;2.01;81.04
56241;BME280;42155;53.096;23.226;2022-11-30T00:27:02;101294.91;;;2.04;81.13
56241;BME280;42155;53.096;23.226;2022-11-30T00:29:02;101291.34;;;2.07;81.10
56241;BME280;42155;53.096;23.226;2022-11-30T00:31:05;101279.09;;;2.08;80.72
56241;BME280;42155;53.096;23.226;2022-11-30T00:33:05;101293.03;;;2.10;80.72
56241;BME280;42155;53.096;23.226;2022-11-30T00:35:06;101274.66;;;2.11;80.29
56241;BME280;42155;53.096;23.226;2022-11-30T00:37:06;101265.31;;;2.01;80.33
56241;BME280;42155;53.096;23.226;2022-11-30T00:39:07;101242.16;;;1.84;80.42
56241;BME280;42155;53.096;23.226;2022-11-30T00:41:08;101241.28;;;1.84;80.50
56241;BME280;42155;53.096;23.226;2022-11-30T00:43:08;101278.19;;;2.10;80.87
56241;BME280;42155;53.096;23.226;2022-11-30T00:45:09;101276.50;;;2.08;80.42
56241;BME280;42155;53.096;23.226;2022-11-30T00:47:09;101272.28;;;2.02;81.19
56241;BME280;42155;53.096;23.226;2022-11-30T00:49:09;101260.19;;;1.96;80.98
56241;BME280;42155;53.096;23.226;2022-11-30T00:51:11;101281.81;;;2.04;80.63
56241;BME280;42155;53.096;23.226;2022-11-30T00:53:11;101264.53;;;1.97;80.62
56241;BME280;42155;53.096;23.226;2022-11-30T00:55:11;101281.94;;;1.98;80.78
56241;BME280;42155;53.096;23.226;2022-11-30T00:57:12;101258.69;;;1.86;81.11
56241;BME280;42155;53.096;23.226;2022-11-30T00:59:12;101253.41;;;1.88;81.35
56241;BME280;42155;53.096;23.226;2022-11-30T01:01:12;101267.25;;;1.94;81.18
56241;BME280;42155;53.096;23.226;2022-11-30T01:03:13;101274.13;;;1.97;81.42
56241;BME280;42155;53.096;23.226;2022-11-30T01:05:14;101280.16;;;2.00;80.77
56241;BME280;42155;53.096;23.226;2022-11-30T01:07:14;101279.28;;;2.01;81.28
56241;BME280;42155;53.096;23.226;2022-11-30T01:09:14;101272.31;;;2.00;80.74
56241;BME280;42155;53.096;23.226;2022-11-30T01:11:19;101271.47;;;2.00;81.32
56241;BME280;42155;53.096;23.226;2022-11-30T01:13:20;101276.66;;;2.01;80.99
56241;BME280;42155;53.096;23.226;2022-11-30T01:15:21;101272.25;;;2.03;81.09
56241;BME280;42155;53.096;23.226;2022-11-30T01:17:21;101283.53;;;2.06;80.75
56241;BME280;42155;53.096;23.226;2022-11-30T01:19:22;101277.50;;;2.02;80.70
56241;BME280;42155;53.096;23.226;2022-11-30T01:21:25;101274.88;;;2.03;80.80
56241;BME280;42155;53.096;23.226;2022-11-30T01:23:26;101273.13;;;2.02;81.06
56241;BME280;42155;53.096;23.226;2022-11-30T01:25:26;101271.47;;;1.98;81.32
56241;BME280;42155;53.096;23.226;2022-11-30T01:27:26;101268.94;;;1.95;81.20
56241;BME280;42155;53.096;23.226;2022-11-30T01:29:27;101268.00;;;1.98;80.81
56241;BME280;42155;53.096;23.226;2022-11-30T01:31:27;101259.50;;;1.88;81.26
56241;BME280;42155;53.096;23.226;2022-11-30T01:33:28;101271.69;;;1.89;81.51
56241;BME280;42155;53.096;23.226;2022-11-30T01:35:28;101266.63;;;1.83;81.60
56241;BME280;42155;53.096;23.226;2022-11-30T01:37:28;101268.41;;;1.81;81.18
56241;BME280;42155;53.096;23.226;2022-11-30T01:39:28;101225.38;;;1.56;81.47
56241;BME280;42155;53.096;23.226;2022-11-30T01:41:31;101269.38;;;1.77;81.22
56241;BME280;42155;53.096;23.226;2022-11-30T01:43:42;101270.19;;;1.79;81.55
56241;BME280;42155;53.096;23.226;2022-11-30T01:45:43;101275.38;;;1.82;81.35
56241;BME280;42155;53.096;23.226;2022-11-30T01:47:47;101275.31;;;1.85;81.77
56241;BME280;42155;53.096;23.226;2022-11-30T01:49:51;101273.44;;;1.90;81.60
56241;BME280;42155;53.096;23.226;2022-11-30T01:52:01;101254.44;;;1.82;81.38
56241;BME280;42155;53.096;23.226;2022-11-30T01:54:05;101265.59;;;1.90;81.48
56241;BME280;42155;53.096;23.226;2022-11-30T01:56:06;101260.38;;;1.89;81.70
56241;BME280;42155;53.096;23.226;2022-11-30T01:58:15;101259.50;;;1.88;81.57
56241;BME280;42155;53.096;23.226;2022-11-30T02:00:19;101271.69;;;1.89;81.21
56241;BME280;42155;53.096;23.226;2022-11-30T02:02:27;101263.81;;;1.91;81.65
56241;BME280;42155;53.096;23.226;2022-11-30T02:04:34;101267.97;;;1.99;81.48
56241;BME280;42155;53.096;23.226;2022-11-30T02:06:34;101241.06;;;1.93;81.59
56241;BME280;42155;53.096;23.226;2022-11-30T02:08:35;101254.78;;;2.02;81.40
56241;BME280;42155;53.096;23.226;2022-11-30T02:10:38;101258.28;;;2.03;81.26
56241;BME280;42155;53.096;23.226;2022-11-30T02:15:10;101266.91;;;2.08;81.19
56241;BME280;42155;53.096;23.226;2022-11-30T02:18:17;101262.59;;;2.06;80.74
56241;BME280;42155;53.096;23.226;2022-11-30T02:30:58;101262.97;;;1.90;81.17
56241;BME280;42155;53.096;23.226;2022-11-30T02:33:06;101265.47;;;1.95;81.10
56241;BME280;42155;53.096;23.226;2022-11-30T02:35:09;101247.31;;;1.87;80.77
56241;BME280;42155;53.096;23.226;2022-11-30T02:37:12;101275.84;;;1.99;81.14
56241;BME280;42155;53.096;23.226;2022-11-30T02:39:13;101271.47;;;1.98;81.32
56241;BME280;42155;53.096;23.226;2022-11-30T02:41:13;101274.88;;;2.03;80.80
56241;BME280;42155;53.096;23.226;2022-11-30T02:43:14;101239.59;;;1.83;80.66
56241;BME280;42155;53.096;23.226;2022-11-30T02:45:15;101280.22;;;1.97;81.49
56241;BME280;42155;53.096;23.226;2022-11-30T02:49:22;101276.75;;;1.97;81.29
56241;BME280;42155;53.096;23.226;2022-11-30T02:51:27;101267.19;;;1.96;81.07
56241;BME280;42155;53.096;23.226;2022-11-30T02:53:29;101270.06;;;1.85;81.43
56241;BME280;42155;53.096;23.226;2022-11-30T02:55:30;101245.84;;;1.77;81.79
56241;BME280;42155;53.096;23.226;2022-11-30T02:57:31;101259.66;;;1.82;81.97
56241;BME280;42155;53.096;23.226;2022-11-30T02:59:32;101201.03;;;1.53;81.59
56241;BME280;42155;53.096;23.226;2022-11-30T03:01:32;101256.16;;;1.83;81.66
56241;BME280;42155;53.096;23.226;2022-11-30T03:03:32;101267.47;;;1.85;81.42
56241;BME280;42155;53.096;23.226;2022-11-30T03:05:33;101275.31;;;1.85;81.25
56241;BME280;42155;53.096;23.226;2022-11-30T03:07:33;101281.41;;;1.86;81.87
56241;BME280;42155;53.096;23.226;2022-11-30T03:09:33;101253.81;;;1.71;81.64
56241;BME280;42155;53.096;23.226;2022-11-30T03:11:34;101279.63;;;1.86;81.92
56241;BME280;42155;53.096;23.226;2022-11-30T03:13:34;101290.91;;;1.90;81.56
56241;BME280;42155;53.096;23.226;2022-11-30T03:15:35;101264.97;;;1.79;81.90
56241;BME280;42155;53.096;23.226;2022-11-30T03:17:35;101287.28;;;1.94;81.64
56241;BME280;42155;53.096;23.226;2022-11-30T03:19:35;101296.91;;;1.93;81.47
56241;BME280;42155;53.096;23.226;2022-11-30T03:21:36;101292.56;;;1.92;81.82
56241;BME280;42155;53.096;23.226;2022-11-30T03:23:37;101297.00;;;1.90;81.84
56241;BME280;42155;53.096;23.226;2022-11-30T03:25:37;101287.56;;;1.83;81.51
56241;BME280;42155;53.096;23.226;2022-11-30T03:27:38;101298.03;;;1.83;82.14
56241;BME280;42155;53.096;23.226;2022-11-30T03:29:38;101300.59;;;1.85;82.03
56241;BME280;42155;53.096;23.226;2022-11-30T03:31:38;101301.50;;;1.85;81.50
56241;BME280;42155;53.096;23.226;2022-11-30T03:33:42;101303.09;;;1.89;81.38
56241;BME280;42155;53.096;23.226;2022-11-30T03:35:43;101303.03;;;1.92;81.24
56241;BME280;42155;53.096;23.226;2022-11-30T03:37:43;101290.22;;;1.82;81.69
56241;BME280;42155;53.096;23.226;2022-11-30T03:39:44;101268.69;;;1.69;81.61
56241;BME280;42155;53.096;23.226;2022-11-30T03:41:44;101294.44;;;1.87;81.53
56241;BME280;42155;53.096;23.226;2022-11-30T03:43:45;101297.97;;;1.86;81.48
56241;BME280;42155;53.096;23.226;2022-11-30T03:45:46;101254.75;;;1.68;81.86
56241;BME280;42155;53.096;23.226;2022-11-30T03:47:46;101297.84;;;1.91;81.70
56241;BME280;42155;53.096;23.226;2022-11-30T03:49:46;101280.59;;;1.82;81.48
56241;BME280;42155;53.096;23.226;2022-11-30T03:51:47;101288.41;;;1.85;81.64
56241;BME280;42155;53.096;23.226;2022-11-30T03:53:47;101297.81;;;1.92;81.40
56241;BME280;42155;53.096;23.226;2022-11-30T03:55:56;101298.72;;;1.91;81.74
56241;BME280;42155;53.096;23.226;2022-11-30T03:57:56;101269.50;;;1.71;81.69
56241;BME280;42155;53.096;23.226;2022-11-30T03:59:57;101299.63;;;1.89;81.98
56241;BME280;42155;53.096;23.226;2022-11-30T04:01:57;101302.19;;;1.92;81.50
56241;BME280;42155;53.096;23.226;2022-11-30T04:03:57;101309.13;;;1.94;81.37
56241;BME280;42155;53.096;23.226;2022-11-30T04:05:58;101292.72;;;1.86;81.42
56241;BME280;42155;53.096;23.226;2022-11-30T04:07:58;101312.56;;;1.96;81.30
56241;BME280;42155;53.096;23.226;2022-11-30T04:09:58;101307.38;;;1.93;81.79
56241;BME280;42155;53.096;23.226;2022-11-30T04:11:59;101313.34;;;2.00;81.44
56241;BME280;42155;53.096;23.226;2022-11-30T04:13:59;101319.44;;;2.00;81.67
56241;BME280;42155;53.096;23.226;2022-11-30T04:15:59;101313.38;;;1.98;81.69
56241;BME280;42155;53.096;23.226;2022-11-30T04:18:00;101304.00;;;1.90;81.90
56241;BME280;42155;53.096;23.226;2022-11-30T04:20:01;101316.97;;;1.94;81.34
56241;BME280;42155;53.096;23.226;2022-11-30T04:22:01;101308.31;;;1.91;81.26
56241;BME280;42155;53.096;23.226;2022-11-30T04:24:01;101316.88;;;1.97;81.83
56241;BME280;42155;53.096;23.226;2022-11-30T04:26:03;101312.56;;;1.96;81.20
56241;BME280;42155;53.096;23.226;2022-11-30T04:28:04;101309.94;;;1.96;81.69
56241;BME280;42155;53.096;23.226;2022-11-30T04:30:05;101310.00;;;1.93;81.57
56241;BME280;42155;53.096;23.226;2022-11-30T04:32:06;101267.84;;;1.68;81.64
56241;BME280;42155;53.096;23.226;2022-11-30T04:34:06;101315.13;;;1.99;81.73
56241;BME280;42155;53.096;23.226;2022-11-30T04:36:15;101303.78;;;1.99;81.82
56241;BME280;42155;53.096;23.226;2022-11-30T04:38:16;101311.66;;;1.97;81.89
56241;BME280;42155;53.096;23.226;2022-11-30T04:40:17;101292.72;;;1.86;81.06
56241;BME280;42155;53.096;23.226;2022-11-30T04:42:17;101307.38;;;1.95;81.29
56241;BME280;42155;53.096;23.226;2022-11-30T04:44:17;101306.63;;;1.90;81.40
56241;BME280;42155;53.096;23.226;2022-11-30T04:46:17;101298.13;;;1.78;81.41
56241;BME280;42155;53.096;23.226;2022-11-30T04:48:18;101320.63;;;1.87;82.07
56241;BME280;42155;53.096;23.226;2022-11-30T04:50:20;101317.97;;;1.89;81.47
56241;BME280;42155;53.096;23.226;2022-11-30T04:52:20;101323.19;;;1.89;81.35
56241;BME280;42155;53.096;23.226;2022-11-30T04:54:21;101322.38;;;1.87;82.20
56241;BME280;42155;53.096;23.226;2022-11-30T04:56:21;101326.66;;;1.89;82.07
56241;BME280;42155;53.096;23.226;2022-11-30T04:58:21;101318.03;;;1.86;81.95
56241;BME280;42155;53.096;23.226;2022-11-30T05:00:22;101318.00;;;1.87;81.39
56241;BME280;42155;53.096;23.226;2022-11-30T05:02:22;101325.91;;;1.84;81.44
56241;BME280;42155;53.096;23.226;2022-11-30T05:04:22;101322.44;;;1.84;82.19
56241;BME280;42155;53.096;23.226;2022-11-30T05:06:23;101328.44;;;1.89;81.33
56241;BME280;42155;53.096;23.226;2022-11-30T05:08:23;101319.97;;;1.77;81.95
56241;BME280;42155;53.096;23.226;2022-11-30T05:10:24;101341.56;;;1.87;81.82
56241;BME280;42155;53.096;23.226;2022-11-30T05:12:25;101323.38;;;1.81;81.63
56241;BME280;42155;53.096;23.226;2022-11-30T05:14:25;101330.19;;;1.88;82.10
56241;BME280;42155;53.096;23.226;2022-11-30T05:16:25;101337.06;;;1.92;81.91
56241;BME280;42155;53.096;23.226;2022-11-30T05:18:26;101334.53;;;1.89;82.12
56241;BME280;42155;53.096;23.226;2022-11-30T05:20:29;101328.41;;;1.90;82.08
56241;BME280;42155;53.096;23.226;2022-11-30T05:22:29;101328.53;;;1.86;81.66
56241;BME280;42155;53.096;23.226;2022-11-30T05:24:29;101327.63;;;1.87;81.77
56241;BME280;42155;53.096;23.226;2022-11-30T05:26:30;101325.03;;;1.85;81.82
56241;BME280;42155;53.096;23.226;2022-11-30T05:28:30;101345.78;;;1.94;81.63
56241;BME280;42155;53.096;23.226;2022-11-30T05:30:30;101305.28;;;1.72;82.04
56241;BME280;42155;53.096;23.226;2022-11-30T05:32:31;101324.34;;;1.75;81.54
56241;BME280;42155;53.096;23.226;2022-11-30T05:34:31;101350.16;;;1.92;81.21
56241;BME280;42155;53.096;23.226;2022-11-30T05:36:31;101356.25;;;1.93;81.69
56241;BME280;42155;53.096;23.226;2022-11-30T05:38:32;101359.84;;;1.89;81.72
56241;BME280;42155;53.096;23.226;2022-11-30T05:40:32;101357.13;;;1.93;81.70
56241;BME280;42155;53.096;23.226;2022-11-30T05:42:32;101316.75;;;1.65;80.99
56241;BME280;42155;53.096;23.226;2022-11-30T05:44:33;101355.59;;;1.83;81.25
56241;BME280;42155;53.096;23.226;2022-11-30T05:46:33;101332.31;;;1.72;81.70
56241;BME280;42155;53.096;23.226;2022-11-30T05:48:34;101342.56;;;1.80;81.40
56241;BME280;42155;53.096;23.226;2022-11-30T05:50:34;101367.53;;;1.96;81.55
56241;BME280;42155;53.096;23.226;2022-11-30T05:52:35;101361.41;;;1.97;81.20
56241;BME280;42155;53.096;23.226;2022-11-30T05:54:35;101348.66;;;1.82;81.13
56241;BME280;42155;53.096;23.226;2022-11-30T05:56:36;101370.28;;;1.90;81.04
56241;BME280;42155;53.096;23.226;2022-11-30T05:58:36;101365.25;;;1.81;81.78
56241;BME280;42155;53.096;23.226;2022-11-30T06:00:36;101355.81;;;1.74;81.61
56241;BME280;42155;53.096;23.226;2022-11-30T06:02:37;101353.22;;;1.72;81.45
56241;BME280;42155;53.096;23.226;2022-11-30T06:04:37;101386.09;;;1.86;81.42
56241;BME280;42155;53.096;23.226;2022-11-30T06:06:37;101371.16;;;1.89;81.32
56241;BME280;42155;53.096;23.226;2022-11-30T06:08:38;101354.03;;;1.76;81.54
56241;BME280;42155;53.096;23.226;2022-11-30T06:10:38;101371.22;;;1.88;81.27
56241;BME280;42155;53.096;23.226;2022-11-30T06:12:38;101379.00;;;1.91;81.44
56241;BME280;42155;53.096;23.226;2022-11-30T06:14:39;101367.75;;;1.87;81.26
56241;BME280;42155;53.096;23.226;2022-11-30T06:16:39;101369.44;;;1.88;81.20
56241;BME280;42155;53.096;23.226;2022-11-30T06:18:39;101362.53;;;1.86;81.38
56241;BME280;42155;53.096;23.226;2022-11-30T06:20:40;101386.81;;;1.92;80.86
56241;BME280;42155;53.096;23.226;2022-11-30T06:22:44;101380.88;;;1.86;81.72
56241;BME280;42155;53.096;23.226;2022-11-30T06:24:44;101384.44;;;1.82;81.39
56241;BME280;42155;53.096;23.226;2022-11-30T06:26:44;101385.25;;;1.85;82.05
56241;BME280;42155;53.096;23.226;2022-11-30T06:28:45;101376.59;;;1.80;81.39
56241;BME280;42155;53.096;23.226;2022-11-30T06:30:45;101378.41;;;1.78;81.47
56241;BME280;42155;53.096;23.226;2022-11-30T06:32:47;101399.09;;;1.90;81.09
56241;BME280;42155;53.096;23.226;2022-11-30T06:34:47;101382.72;;;1.81;81.32
56241;BME280;42155;53.096;23.226;2022-11-30T06:36:47;101395.63;;;1.90;81.70
56241;BME280;42155;53.096;23.226;2022-11-30T06:38:48;101380.94;;;1.83;81.13
56241;BME280;42155;53.096;23.226;2022-11-30T06:40:49;101402.47;;;1.95;81.75
56241;BME280;42155;53.096;23.226;2022-11-30T06:42:49;101400.75;;;1.94;81.45
56241;BME280;42155;53.096;23.226;2022-11-30T06:44:49;101376.59;;;1.80;81.63
56241;BME280;42155;53.096;23.226;2022-11-30T06:46:50;101391.25;;;1.89;81.51
56241;BME280;42155;53.096;23.226;2022-11-30T06:48:50;101387.88;;;1.84;81.71
56241;BME280;42155;53.096;23.226;2022-11-30T06:50:50;101398.22;;;1.90;81.01
56241;BME280;42155;53.096;23.226;2022-11-30T06:52:51;101399.97;;;1.89;81.41
56241;BME280;42155;53.096;23.226;2022-11-30T06:54:51;101399.00;;;1.93;81.21
56241;BME280;42155;53.096;23.226;2022-11-30T06:56:51;101375.72;;;1.81;80.88
56241;BME280;42155;53.096;23.226;2022-11-30T06:58:51;101407.75;;;1.92;81.21
56241;BME280;42155;53.096;23.226;2022-11-30T07:00:52;101407.81;;;1.89;81.29
56241;BME280;42155;53.096;23.226;2022-11-30T07:02:52;101399.09;;;1.90;80.94
56241;BME280;42155;53.096;23.226;2022-11-30T07:04:52;101405.09;;;1.94;81.21
56241;BME280;42155;53.096;23.226;2022-11-30T07:06:53;101402.53;;;1.92;81.32
56241;BME280;42155;53.096;23.226;2022-11-30T07:08:53;101400.75;;;1.94;80.61
56241;BME280;42155;53.096;23.226;2022-11-30T07:10:53;101406.75;;;1.98;80.78
56241;BME280;42155;53.096;23.226;2022-11-30T07:12:54;101418.03;;;2.01;81.17
56241;BME280;42155;53.096;23.226;2022-11-30T07:14:54;101399.09;;;1.90;80.59
56241;BME280;42155;53.096;23.226;2022-11-30T07:16:54;101373.97;;;1.80;81.01
56241;BME280;42155;53.096;23.226;2022-11-30T07:18:55;101418.00;;;2.03;81.18
56241;BME280;42155;53.096;23.226;2022-11-30T07:20:58;101422.34;;;2.04;80.65
56241;BME280;42155;53.096;23.226;2022-11-30T07:22:58;101411.94;;;2.01;80.46
56241;BME280;42155;53.096;23.226;2022-11-30T07:24:59;101425.69;;;2.11;81.00
56241;BME280;42155;53.096;23.226;2022-11-30T07:27:00;101430.03;;;2.12;80.88
56241;BME280;42155;53.096;23.226;2022-11-30T07:29:01;101403.28;;;1.97;81.09
56241;BME280;42155;53.096;23.226;2022-11-30T07:31:12;101414.41;;;2.07;80.70
56241;BME280;42155;53.096;23.226;2022-11-30T07:33:13;101434.28;;;2.17;80.99
56241;BME280;42155;53.096;23.226;2022-11-30T07:35:13;101424.66;;;2.18;80.25
56241;BME280;42155;53.096;23.226;2022-11-30T07:37:13;101424.72;;;2.15;80.26
56241;BME280;42155;53.096;23.226;2022-11-30T07:39:14;101425.63;;;2.14;81.04
56241;BME280;42155;53.096;23.226;2022-11-30T07:41:14;101421.41;;;2.07;80.78
56241;BME280;42155;53.096;23.226;2022-11-30T07:43:15;101429.06;;;2.16;80.84
56241;BME280;42155;53.096;23.226;2022-11-30T07:45:15;101441.09;;;2.24;80.47
56241;BME280;42155;53.096;23.226;2022-11-30T07:47:16;101431.53;;;2.23;80.73
56241;BME280;42155;53.096;23.226;2022-11-30T07:49:16;101422.72;;;2.26;80.37
56241;BME280;42155;53.096;23.226;2022-11-30T07:51:19;101434.94;;;2.27;80.00
56241;BME280;42155;53.096;23.226;2022-11-30T07:53:19;101425.44;;;2.21;80.31
56241;BME280;42155;53.096;23.226;2022-11-30T07:55:20;101428.16;;;2.17;80.19
56241;BME280;42155;53.096;23.226;2022-11-30T07:57:20;101409.13;;;2.10;80.09
56241;BME280;42155;53.096;23.226;2022-11-30T07:59:20;101440.34;;;2.19;80.29
56241;BME280;42155;53.096;23.226;2022-11-30T08:01:22;101424.88;;;2.09;80.14
56241;BME280;42155;53.096;23.226;2022-11-30T08:03:23;101409.38;;;1.99;79.95
56241;BME280;42155;53.096;23.226;2022-11-30T08:05:23;101436.97;;;2.14;80.05
56241;BME280;42155;53.096;23.226;2022-11-30T08:07:24;101444.81;;;2.14;80.64
56241;BME280;42155;53.096;23.226;2022-11-30T08:09:24;101445.69;;;2.15;80.55
56241;BME280;42155;53.096;23.226;2022-11-30T08:11:27;101431.78;;;2.13;79.82
56241;BME280;42155;53.096;23.226;2022-11-30T08:13:28;101442.09;;;2.19;80.29
56241;BME280;42155;53.096;23.226;2022-11-30T08:15:28;101440.28;;;2.21;79.97
56241;BME280;42155;53.096;23.226;2022-11-30T08:17:28;101421.41;;;2.07;79.82
56241;BME280;42155;53.096;23.226;2022-11-30T08:19:29;101440.44;;;2.15;79.80
56241;BME280;42155;53.096;23.226;2022-11-30T08:21:29;101408.31;;;2.08;79.48
56241;BME280;42155;53.096;23.226;2022-11-30T08:23:37;101448.00;;;2.28;79.92
56241;BME280;42155;53.096;23.226;2022-11-30T08:25:38;101442.00;;;2.23;79.84
56241;BME280;42155;53.096;23.226;2022-11-30T08:27:38;101441.13;;;2.23;79.46
56241;BME280;42155;53.096;23.226;2022-11-30T08:29:38;101441.13;;;2.23;79.58
56241;BME280;42155;53.096;23.226;2022-11-30T08:31:39;101458.41;;;2.32;80.11
56241;BME280;42155;53.096;23.226;2022-11-30T08:33:39;101455.75;;;2.33;79.30
56241;BME280;42155;53.096;23.226;2022-11-30T08:35:39;101456.78;;;2.26;79.75
56241;BME280;42155;53.096;23.226;2022-11-30T08:37:40;101455.06;;;2.25;79.91
56241;BME280;42155;53.096;23.226;2022-11-30T08:39:40;101458.47;;;2.28;79.54
56241;BME280;42155;53.096;23.226;2022-11-30T08:41:40;101464.56;;;2.29;79.80
56241;BME280;42155;53.096;23.226;2022-11-30T08:43:41;101459.38;;;2.26;79.46
56241;BME280;42155;53.096;23.226;2022-11-30T08:45:41;101430.97;;;2.09;79.75
56241;BME280;42155;53.096;23.226;2022-11-30T08:47:42;101455.09;;;2.23;79.52
56241;BME280;42155;53.096;23.226;2022-11-30T08:49:42;101449.78;;;2.26;79.29
56241;BME280;42155;53.096;23.226;2022-11-30T08:51:43;101459.28;;;2.32;79.63
56241;BME280;42155;53.096;23.226;2022-11-30T08:53:44;101446.06;;;2.37;79.49
56241;BME280;42155;53.096;23.226;2022-11-30T08:56:15;101439.97;;;2.36;79.58
56241;BME280;42155;53.096;23.226;2022-11-30T08:58:16;101436.28;;;2.43;79.14
56241;BME280;42155;53.096;23.226;2022-11-30T09:00:16;101451.88;;;2.49;79.11
56241;BME280;42155;53.096;23.226;2022-11-30T09:02:18;101443.19;;;2.47;78.93
56241;BME280;42155;53.096;23.226;2022-11-30T09:04:18;101434.78;;;2.33;78.72
56241;BME280;42155;53.096;23.226;2022-11-30T09:06:21;101455.53;;;2.42;78.80
56241;BME280;42155;53.096;23.226;2022-11-30T09:08:22;101455.66;;;2.38;79.11
56241;BME280;42155;53.096;23.226;2022-11-30T09:10:22;101418.56;;;2.17;79.03
56241;BME280;42155;53.096;23.226;2022-11-30T09:12:23;101453.03;;;2.38;79.35
56241;BME280;42155;53.096;23.226;2022-11-30T09:14:23;101443.47;;;2.35;78.78
56241;BME280;42155;53.096;23.226;2022-11-30T09:16:24;101455.47;;;2.45;78.66
56241;BME280;42155;53.096;23.226;2022-11-30T09:18:25;101443.41;;;2.38;79.12
56241;BME280;42155;53.096;23.226;2022-11-30T09:20:25;101457.09;;;2.49;78.37
56241;BME280;42155;53.096;23.226;2022-11-30T09:22:26;101429.56;;;2.33;78.52
56241;BME280;42155;53.096;23.226;2022-11-30T09:24:26;101388.31;;;2.04;78.31
56241;BME280;42155;53.096;23.226;2022-11-30T09:26:26;101460.72;;;2.45;78.66
56241;BME280;42155;53.096;23.226;2022-11-30T09:28:27;101458.91;;;2.47;78.56
56241;BME280;42155;53.096;23.226;2022-11-30T09:30:28;101453.69;;;2.47;78.02
56241;BME280;42155;53.096;23.226;2022-11-30T09:32:28;101431.22;;;2.37;78.30
56241;BME280;42155;53.096;23.226;2022-11-30T09:34:28;101457.19;;;2.46;77.93
56241;BME280;42155;53.096;23.226;2022-11-30T09:36:29;101447.63;;;2.45;78.55
56241;BME280;42155;53.096;23.226;2022-11-30T09:38:29;101446.72;;;2.46;78.49
56241;BME280;42155;53.096;23.226;2022-11-30T09:40:30;101445.84;;;2.46;78.50
56241;BME280;42155;53.096;23.226;2022-11-30T09:42:47;101423.50;;;2.29;77.82
56241;BME280;42155;53.096;23.226;2022-11-30T09:45:05;101426.03;;;2.34;78.20
56241;BME280;42155;53.096;23.226;2022-11-30T09:49:37;101448.31;;;2.52;78.14
56241;BME280;42155;53.096;23.226;2022-11-30T09:51:44;101448.28;;;2.53;77.96
56241;BME280;42155;53.096;23.226;2022-11-30T09:53:48;101440.47;;;2.52;77.96
56241;BME280;42155;53.096;23.226;2022-11-30T09:55:52;101423.31;;;2.39;77.63
56241;BME280;42155;53.096;23.226;2022-11-30T09:57:57;101413.97;;;2.27;77.90
56241;BME280;42155;53.096;23.226;2022-11-30T10:00:03;101451.97;;;2.46;78.43
56241;BME280;42155;53.096;23.226;2022-11-30T10:02:16;101448.38;;;2.50;78.30
56241;BME280;42155;53.096;23.226;2022-11-30T10:04:26;101453.47;;;2.57;78.39
56241;BME280;42155;53.096;23.226;2022-11-30T10:06:35;101435.94;;;2.59;77.95
56241;BME280;42155;53.096;23.226;2022-11-30T10:09:04;101434.09;;;2.64;77.67
56241;BME280;42155;53.096;23.226;2022-11-30T10:11:36;101442.59;;;2.72;77.29
56241;BME280;42155;53.096;23.226;2022-11-30T10:14:16;101438.19;;;2.74;77.18
56241;BME280;42155;53.096;23.226;2022-11-30T10:20:51;101418.34;;;2.64;77.49
56241;BME280;42155;53.096;23.226;2022-11-30T10:25:30;101439.09;;;2.73;77.27
56241;BME280;42155;53.096;23.226;2022-11-30T10:27:38;101437.34;;;2.73;77.94
56241;BME280;42155;53.096;23.226;2022-11-30T10:29:44;101405.38;;;2.59;77.49
56241;BME280;42155;53.096;23.226;2022-11-30T10:31:46;101422.59;;;2.68;78.02
56241;BME280;42155;53.096;23.226;2022-11-30T10:33:49;101427.72;;;2.74;77.62
56241;BME280;42155;53.096;23.226;2022-11-30T10:35:53;101429.75;;;2.61;78.05
56241;BME280;42155;53.096;23.226;2022-11-30T10:37:56;101426.56;;;2.50;78.06
56241;BME280;42155;53.096;23.226;2022-11-30T10:40:17;101439.81;;;2.42;78.18
56241;BME280;42155;53.096;23.226;2022-11-30T10:42:23;101431.91;;;2.44;78.20
56241;BME280;42155;53.096;23.226;2022-11-30T10:44:36;101434.53;;;2.44;77.76
56241;BME280;42155;53.096;23.226;2022-11-30T10:46:42;101423.25;;;2.42;78.23
56241;BME280;42155;53.096;23.226;2022-11-30T10:48:51;101435.16;;;2.55;78.17
56241;BME280;42155;53.096;23.226;2022-11-30T10:50:53;101420.31;;;2.55;77.79
56241;BME280;42155;53.096;23.226;2022-11-30T10:52:56;101416.84;;;2.53;78.16
56241;BME280;42155;53.096;23.226;2022-11-30T10:54:57;101423.66;;;2.61;77.83
56241;BME280;42155;53.096;23.226;2022-11-30T10:56:59;101430.56;;;2.65;77.65
56241;BME280;42155;53.096;23.226;2022-11-30T10:59:05;101427.81;;;2.69;77.46
56241;BME280;42155;53.096;23.226;2022-11-30T11:01:27;101424.38;;;2.67;78.28
56241;BME280;42155;53.096;23.226;2022-11-30T11:03:28;101424.34;;;2.69;77.71